Terminal Aerodrome Forecast
Issued by NWS Central Illinois

Home | Current Version | Previous Version | Text Only | Print | Product List | Glossary On
Versions: 1 2 3 4 5 6 7 8 9 10 11 12 13 14 15 16 17
685
FTUS43 KILX 051740 AAB
TAFSPI
TAF AMD
KSPI 051740Z 0518/0618 17008KT P6SM OVC009
     FM052000 15007KT P6SM BKN045
     FM060000 12006KT 4SM BR OVC025
     FM060500 13005KT 2SM BR OVC008
     FM060900 VRB03KT 1/2SM FG OVC003
     FM061400 30006KT 1SM BR OVC003
     FM061600 32010KT 4SM BR OVC012=

USA.gov is the U.S. government's official web portal to all federal, state and local government web resources and services.